sensor_id;sensor_type;location;lat;lon;timestamp;temperature;humidity
15483;DHT22;7843;50.330;7.312;2023-07-29T00:00:14;17.90;99.90
15483;DHT22;7843;50.330;7.312;2023-07-29T00:02:42;17.90;99.90
15483;DHT22;7843;50.330;7.312;2023-07-29T00:05:09;17.90;99.90
15483;DHT22;7843;50.330;7.312;2023-07-29T00:07:35;17.90;99.90
15483;DHT22;7843;50.330;7.312;2023-07-29T00:10:03;17.90;99.90
15483;DHT22;7843;50.330;7.312;2023-07-29T00:12:29;17.90;99.90
15483;DHT22;7843;50.330;7.312;2023-07-29T00:14:56;17.80;99.90
15483;DHT22;7843;50.330;7.312;2023-07-29T00:17:23;17.80;99.90
15483;DHT22;7843;50.330;7.312;2023-07-29T00:19:49;17.70;99.90
15483;DHT22;7843;50.330;7.312;2023-07-29T00:22:16;17.70;99.90
15483;DHT22;7843;50.330;7.312;2023-07-29T00:24:43;17.70;99.90
15483;DHT22;7843;50.330;7.312;2023-07-29T00:27:10;17.70;99.90
15483;DHT22;7843;50.330;7.312;2023-07-29T00:29:36;17.60;99.90
15483;DHT22;7843;50.330;7.312;2023-07-29T00:32:03;17.60;99.90
15483;DHT22;7843;50.330;7.312;2023-07-29T00:34:30;17.60;99.90
15483;DHT22;7843;50.330;7.312;2023-07-29T00:36:57;17.60;99.90
15483;DHT22;7843;50.330;7.312;2023-07-29T00:39:24;17.60;99.90
15483;DHT22;7843;50.330;7.312;2023-07-29T00:41:51;17.60;99.90
15483;DHT22;7843;50.330;7.312;2023-07-29T00:44:18;17.60;99.90
15483;DHT22;7843;50.330;7.312;2023-07-29T00:46:46;17.60;99.90
15483;DHT22;7843;50.330;7.312;2023-07-29T00:49:13;17.60;99.90
15483;DHT22;7843;50.330;7.312;2023-07-29T00:51:40;17.60;99.90
15483;DHT22;7843;50.330;7.312;2023-07-29T00:54:07;17.70;99.90
15483;DHT22;7843;50.330;7.312;2023-07-29T00:56:33;17.70;99.90
15483;DHT22;7843;50.330;7.312;2023-07-29T00:59:01;17.70;99.90
15483;DHT22;7843;50.330;7.312;2023-07-29T01:01:28;17.80;99.90
15483;DHT22;7843;50.330;7.312;2023-07-29T01:03:56;17.70;99.90
15483;DHT22;7843;50.330;7.312;2023-07-29T01:10:31;17.70;99.90
15483;DHT22;7843;50.330;7.312;2023-07-29T01:13:10;17.70;99.90
15483;DHT22;7843;50.330;7.312;2023-07-29T01:15:49;17.70;99.90
15483;DHT22;7843;50.330;7.312;2023-07-29T01:18:22;17.70;99.90
15483;DHT22;7843;50.330;7.312;2023-07-29T01:20:58;17.80;99.90
15483;DHT22;7843;50.330;7.312;2023-07-29T01:23:29;17.80;99.90
15483;DHT22;7843;50.330;7.312;2023-07-29T01:25:55;17.80;99.90
15483;DHT22;7843;50.330;7.312;2023-07-29T01:28:23;17.80;99.90
15483;DHT22;7843;50.330;7.312;2023-07-29T01:31:01;17.80;99.90
15483;DHT22;7843;50.330;7.312;2023-07-29T01:33:34;17.80;99.90
15483;DHT22;7843;50.330;7.312;2023-07-29T01:36:07;17.80;99.90
15483;DHT22;7843;50.330;7.312;2023-07-29T01:38:39;17.80;99.90
15483;DHT22;7843;50.330;7.312;2023-07-29T01:41:08;17.80;99.90
15483;DHT22;7843;50.330;7.312;2023-07-29T01:43:36;17.80;99.90
15483;DHT22;7843;50.330;7.312;2023-07-29T01:46:10;17.80;99.90
15483;DHT22;7843;50.330;7.312;2023-07-29T01:48:38;17.80;99.90
15483;DHT22;7843;50.330;7.312;2023-07-29T01:51:05;17.80;99.90
15483;DHT22;7843;50.330;7.312;2023-07-29T01:53:33;17.80;99.90
15483;DHT22;7843;50.330;7.312;2023-07-29T01:55:59;17.80;99.90
15483;DHT22;7843;50.330;7.312;2023-07-29T01:58:26;17.80;99.90
15483;DHT22;7843;50.330;7.312;2023-07-29T02:00:53;17.80;99.90
15483;DHT22;7843;50.330;7.312;2023-07-29T02:03:19;17.80;99.90
15483;DHT22;7843;50.330;7.312;2023-07-29T02:05:46;17.80;99.90
15483;DHT22;7843;50.330;7.312;2023-07-29T02:08:13;17.80;99.90
15483;DHT22;7843;50.330;7.312;2023-07-29T02:10:40;17.80;99.90
15483;DHT22;7843;50.330;7.312;2023-07-29T02:13:07;17.80;99.90
15483;DHT22;7843;50.330;7.312;2023-07-29T02:15:34;17.80;99.90
15483;DHT22;7843;50.330;7.312;2023-07-29T02:18:00;17.80;99.90
15483;DHT22;7843;50.330;7.312;2023-07-29T02:20:28;17.70;99.90
15483;DHT22;7843;50.330;7.312;2023-07-29T02:22:55;17.70;99.90
15483;DHT22;7843;50.330;7.312;2023-07-29T02:25:22;17.70;99.90
15483;DHT22;7843;50.330;7.312;2023-07-29T02:27:48;17.70;99.90
15483;DHT22;7843;50.330;7.312;2023-07-29T02:30:15;17.60;99.90
15483;DHT22;7843;50.330;7.312;2023-07-29T02:32:42;17.60;99.90
15483;DHT22;7843;50.330;7.312;2023-07-29T02:35:09;17.60;99.90
15483;DHT22;7843;50.330;7.312;2023-07-29T02:37:36;17.60;99.90
15483;DHT22;7843;50.330;7.312;2023-07-29T02:40:03;17.50;99.90
15483;DHT22;7843;50.330;7.312;2023-07-29T02:42:30;17.50;99.90
15483;DHT22;7843;50.330;7.312;2023-07-29T02:44:57;17.40;99.90
15483;DHT22;7843;50.330;7.312;2023-07-29T02:47:23;17.40;99.90
15483;DHT22;7843;50.330;7.312;2023-07-29T02:49:50;17.40;99.90
15483;DHT22;7843;50.330;7.312;2023-07-29T02:52:17;17.30;99.90
15483;DHT22;7843;50.330;7.312;2023-07-29T02:54:44;17.30;99.90
15483;DHT22;7843;50.330;7.312;2023-07-29T02:57:10;17.30;99.90
15483;DHT22;7843;50.330;7.312;2023-07-29T02:59:37;17.30;99.90
15483;DHT22;7843;50.330;7.312;2023-07-29T03:02:04;17.30;99.90
15483;DHT22;7843;50.330;7.312;2023-07-29T03:04:30;17.30;99.90
15483;DHT22;7843;50.330;7.312;2023-07-29T03:06:58;17.30;99.90
15483;DHT22;7843;50.330;7.312;2023-07-29T03:09:26;17.30;99.90
15483;DHT22;7843;50.330;7.312;2023-07-29T03:11:53;17.20;99.90
15483;DHT22;7843;50.330;7.312;2023-07-29T03:14:21;17.20;99.90
15483;DHT22;7843;50.330;7.312;2023-07-29T03:16:48;17.20;99.90
15483;DHT22;7843;50.330;7.312;2023-07-29T03:19:15;17.10;99.90
15483;DHT22;7843;50.330;7.312;2023-07-29T03:21:41;17.10;99.90
15483;DHT22;7843;50.330;7.312;2023-07-29T03:24:08;17.10;99.90
15483;DHT22;7843;50.330;7.312;2023-07-29T03:26:35;17.10;99.90
15483;DHT22;7843;50.330;7.312;2023-07-29T03:29:01;17.10;99.90
15483;DHT22;7843;50.330;7.312;2023-07-29T03:31:28;17.10;99.90
15483;DHT22;7843;50.330;7.312;2023-07-29T03:33:55;17.10;99.90
15483;DHT22;7843;50.330;7.312;2023-07-29T03:36:22;17.10;99.90
15483;DHT22;7843;50.330;7.312;2023-07-29T03:38:48;17.10;99.90
15483;DHT22;7843;50.330;7.312;2023-07-29T03:41:15;17.10;99.90
15483;DHT22;7843;50.330;7.312;2023-07-29T03:43:42;17.20;99.90
15483;DHT22;7843;50.330;7.312;2023-07-29T03:46:08;17.20;99.90
15483;DHT22;7843;50.330;7.312;2023-07-29T03:48:37;17.20;99.90
15483;DHT22;7843;50.330;7.312;2023-07-29T03:51:04;17.20;99.90
15483;DHT22;7843;50.330;7.312;2023-07-29T03:53:30;17.20;99.90
15483;DHT22;7843;50.330;7.312;2023-07-29T03:55:57;17.30;99.90
15483;DHT22;7843;50.330;7.312;2023-07-29T03:58:24;17.30;99.90
15483;DHT22;7843;50.330;7.312;2023-07-29T04:00:51;17.30;99.90
15483;DHT22;7843;50.330;7.312;2023-07-29T04:03:17;17.30;99.90
15483;DHT22;7843;50.330;7.312;2023-07-29T04:05:44;17.40;99.90
15483;DHT22;7843;50.330;7.312;2023-07-29T04:08:11;17.40;99.90
15483;DHT22;7843;50.330;7.312;2023-07-29T04:10:38;17.40;99.90
15483;DHT22;7843;50.330;7.312;2023-07-29T04:13:04;17.40;99.90
15483;DHT22;7843;50.330;7.312;2023-07-29T04:15:31;17.50;99.90
15483;DHT22;7843;50.330;7.312;2023-07-29T04:17:58;17.40;99.90
15483;DHT22;7843;50.330;7.312;2023-07-29T04:20:25;17.40;99.90
15483;DHT22;7843;50.330;7.312;2023-07-29T04:22:51;17.50;99.90
15483;DHT22;7843;50.330;7.312;2023-07-29T04:25:18;17.50;99.90
15483;DHT22;7843;50.330;7.312;2023-07-29T04:27:45;17.50;99.90
15483;DHT22;7843;50.330;7.312;2023-07-29T04:30:12;17.60;99.90
15483;DHT22;7843;50.330;7.312;2023-07-29T04:32:38;17.60;99.90
15483;DHT22;7843;50.330;7.312;2023-07-29T04:35:06;17.60;99.90
15483;DHT22;7843;50.330;7.312;2023-07-29T04:37:32;17.60;99.90
15483;DHT22;7843;50.330;7.312;2023-07-29T04:39:59;17.60;99.90
15483;DHT22;7843;50.330;7.312;2023-07-29T04:42:26;17.70;99.90
15483;DHT22;7843;50.330;7.312;2023-07-29T04:44:52;17.70;99.90
15483;DHT22;7843;50.330;7.312;2023-07-29T04:47:19;17.70;99.90
15483;DHT22;7843;50.330;7.312;2023-07-29T04:49:46;17.70;99.90
15483;DHT22;7843;50.330;7.312;2023-07-29T04:52:13;17.70;99.90
15483;DHT22;7843;50.330;7.312;2023-07-29T04:54:39;17.80;99.90
15483;DHT22;7843;50.330;7.312;2023-07-29T04:57:06;17.80;99.90
15483;DHT22;7843;50.330;7.312;2023-07-29T04:59:33;17.80;99.90
15483;DHT22;7843;50.330;7.312;2023-07-29T05:02:00;17.80;99.90
15483;DHT22;7843;50.330;7.312;2023-07-29T05:04:27;17.80;99.90
15483;DHT22;7843;50.330;7.312;2023-07-29T05:06:54;17.80;99.90
15483;DHT22;7843;50.330;7.312;2023-07-29T05:09:20;17.80;99.90
15483;DHT22;7843;50.330;7.312;2023-07-29T05:11:47;17.80;99.90
15483;DHT22;7843;50.330;7.312;2023-07-29T05:14:17;17.80;99.90
15483;DHT22;7843;50.330;7.312;2023-07-29T05:16:44;17.80;99.90
15483;DHT22;7843;50.330;7.312;2023-07-29T05:19:11;17.80;99.90
15483;DHT22;7843;50.330;7.312;2023-07-29T05:21:39;17.80;99.90
15483;DHT22;7843;50.330;7.312;2023-07-29T05:24:07;17.80;99.90
15483;DHT22;7843;50.330;7.312;2023-07-29T05:26:33;17.80;99.90
15483;DHT22;7843;50.330;7.312;2023-07-29T05:29:00;17.80;99.90
15483;DHT22;7843;50.330;7.312;2023-07-29T05:31:27;17.90;99.90
15483;DHT22;7843;50.330;7.312;2023-07-29T05:33:54;17.90;99.90
15483;DHT22;7843;50.330;7.312;2023-07-29T05:36:21;17.90;99.90
15483;DHT22;7843;50.330;7.312;2023-07-29T05:38:48;17.90;99.90
15483;DHT22;7843;50.330;7.312;2023-07-29T05:41:14;17.90;99.90
15483;DHT22;7843;50.330;7.312;2023-07-29T05:43:41;18.00;99.90
15483;DHT22;7843;50.330;7.312;2023-07-29T05:46:09;18.00;99.90
15483;DHT22;7843;50.330;7.312;2023-07-29T05:48:36;18.00;99.90
15483;DHT22;7843;50.330;7.312;2023-07-29T05:51:03;18.00;99.90
15483;DHT22;7843;50.330;7.312;2023-07-29T05:53:32;18.00;99.90
15483;DHT22;7843;50.330;7.312;2023-07-29T05:55:58;18.10;99.90
15483;DHT22;7843;50.330;7.312;2023-07-29T05:58:25;18.10;99.90
15483;DHT22;7843;50.330;7.312;2023-07-29T06:00:52;18.10;99.90
15483;DHT22;7843;50.330;7.312;2023-07-29T06:03:19;18.10;99.90
15483;DHT22;7843;50.330;7.312;2023-07-29T06:05:46;18.10;99.90
15483;DHT22;7843;50.330;7.312;2023-07-29T06:08:12;18.20;99.90
15483;DHT22;7843;50.330;7.312;2023-07-29T06:10:39;18.20;99.90
15483;DHT22;7843;50.330;7.312;2023-07-29T06:13:06;18.20;99.90
15483;DHT22;7843;50.330;7.312;2023-07-29T06:15:32;18.20;99.90
15483;DHT22;7843;50.330;7.312;2023-07-29T06:17:59;18.20;99.90
15483;DHT22;7843;50.330;7.312;2023-07-29T06:20:26;18.20;99.90
15483;DHT22;7843;50.330;7.312;2023-07-29T06:22:53;18.30;99.90
15483;DHT22;7843;50.330;7.312;2023-07-29T06:25:20;18.30;99.90
15483;DHT22;7843;50.330;7.312;2023-07-29T06:27:46;18.30;99.90
15483;DHT22;7843;50.330;7.312;2023-07-29T06:30:13;18.40;99.90
15483;DHT22;7843;50.330;7.312;2023-07-29T06:32:40;18.40;99.90
15483;DHT22;7843;50.330;7.312;2023-07-29T06:35:07;18.50;99.90
15483;DHT22;7843;50.330;7.312;2023-07-29T06:37:34;18.50;99.90
15483;DHT22;7843;50.330;7.312;2023-07-29T06:40:00;18.60;99.90
15483;DHT22;7843;50.330;7.312;2023-07-29T06:42:27;18.60;99.90
15483;DHT22;7843;50.330;7.312;2023-07-29T06:44:54;18.70;99.90
15483;DHT22;7843;50.330;7.312;2023-07-29T06:47:21;18.70;99.90
15483;DHT22;7843;50.330;7.312;2023-07-29T06:49:48;18.70;99.90
15483;DHT22;7843;50.330;7.312;2023-07-29T06:52:15;18.80;99.90
15483;DHT22;7843;50.330;7.312;2023-07-29T06:54:41;18.80;99.90
15483;DHT22;7843;50.330;7.312;2023-07-29T06:57:08;18.90;99.90
15483;DHT22;7843;50.330;7.312;2023-07-29T06:59:37;18.90;99.90
15483;DHT22;7843;50.330;7.312;2023-07-29T07:02:04;18.90;99.90
15483;DHT22;7843;50.330;7.312;2023-07-29T07:04:31;19.10;99.90
15483;DHT22;7843;50.330;7.312;2023-07-29T07:06:58;19.30;99.90
15483;DHT22;7843;50.330;7.312;2023-07-29T07:09:24;19.40;99.90
15483;DHT22;7843;50.330;7.312;2023-07-29T07:11:51;19.50;99.90
15483;DHT22;7843;50.330;7.312;2023-07-29T07:14:19;19.50;99.90
15483;DHT22;7843;50.330;7.312;2023-07-29T07:16:45;19.40;99.90
15483;DHT22;7843;50.330;7.312;2023-07-29T07:19:12;19.40;99.90
15483;DHT22;7843;50.330;7.312;2023-07-29T07:21:39;19.50;99.90
15483;DHT22;7843;50.330;7.312;2023-07-29T07:24:05;19.60;99.90
15483;DHT22;7843;50.330;7.312;2023-07-29T07:26:32;19.60;99.90
15483;DHT22;7843;50.330;7.312;2023-07-29T07:28:59;19.60;99.90
15483;DHT22;7843;50.330;7.312;2023-07-29T07:31:26;19.70;99.90
15483;DHT22;7843;50.330;7.312;2023-07-29T07:33:52;19.80;99.90
15483;DHT22;7843;50.330;7.312;2023-07-29T07:36:19;20.00;99.90
15483;DHT22;7843;50.330;7.312;2023-07-29T07:38:46;20.20;99.90
15483;DHT22;7843;50.330;7.312;2023-07-29T07:41:12;20.40;99.90
15483;DHT22;7843;50.330;7.312;2023-07-29T07:43:39;20.60;99.90
15483;DHT22;7843;50.330;7.312;2023-07-29T07:46:06;20.70;99.90
15483;DHT22;7843;50.330;7.312;2023-07-29T07:48:32;20.70;99.90
15483;DHT22;7843;50.330;7.312;2023-07-29T07:50:59;20.80;99.90
15483;DHT22;7843;50.330;7.312;2023-07-29T07:53:26;20.90;99.90
15483;DHT22;7843;50.330;7.312;2023-07-29T07:55:53;20.90;99.90
15483;DHT22;7843;50.330;7.312;2023-07-29T07:58:20;20.80;99.90
15483;DHT22;7843;50.330;7.312;2023-07-29T08:00:47;20.80;99.90
15483;DHT22;7843;50.330;7.312;2023-07-29T08:03:13;20.80;99.90
15483;DHT22;7843;50.330;7.312;2023-07-29T08:05:40;20.80;99.90
15483;DHT22;7843;50.330;7.312;2023-07-29T08:08:07;20.80;99.90
15483;DHT22;7843;50.330;7.312;2023-07-29T08:10:33;20.80;99.90
15483;DHT22;7843;50.330;7.312;2023-07-29T08:13:00;20.80;99.90
15483;DHT22;7843;50.330;7.312;2023-07-29T08:15:27;20.70;99.90
15483;DHT22;7843;50.330;7.312;2023-07-29T08:17:54;20.60;99.90
15483;DHT22;7843;50.330;7.312;2023-07-29T08:20:20;20.60;99.90
15483;DHT22;7843;50.330;7.312;2023-07-29T08:22:47;20.50;99.90
15483;DHT22;7843;50.330;7.312;2023-07-29T08:25:14;20.50;99.90
15483;DHT22;7843;50.330;7.312;2023-07-29T08:27:41;20.50;99.90
15483;DHT22;7843;50.330;7.312;2023-07-29T08:30:08;20.30;99.90
15483;DHT22;7843;50.330;7.312;2023-07-29T08:32:35;20.20;99.90
15483;DHT22;7843;50.330;7.312;2023-07-29T08:35:02;20.10;99.90
15483;DHT22;7843;50.330;7.312;2023-07-29T08:37:29;20.00;99.90
15483;DHT22;7843;50.330;7.312;2023-07-29T08:39:56;19.80;99.90
15483;DHT22;7843;50.330;7.312;2023-07-29T08:42:23;19.80;99.90
15483;DHT22;7843;50.330;7.312;2023-07-29T08:44:54;19.70;99.90
15483;DHT22;7843;50.330;7.312;2023-07-29T08:47:21;19.60;99.90
15483;DHT22;7843;50.330;7.312;2023-07-29T08:49:50;19.50;99.90
15483;DHT22;7843;50.330;7.312;2023-07-29T08:52:18;19.30;99.90
15483;DHT22;7843;50.330;7.312;2023-07-29T08:54:45;19.10;99.90
15483;DHT22;7843;50.330;7.312;2023-07-29T08:57:13;19.00;99.90
15483;DHT22;7843;50.330;7.312;2023-07-29T08:59:40;18.90;99.90
15483;DHT22;7843;50.330;7.312;2023-07-29T09:02:08;18.60;99.90
15483;DHT22;7843;50.330;7.312;2023-07-29T09:04:34;18.50;99.90
15483;DHT22;7843;50.330;7.312;2023-07-29T09:07:01;18.40;99.90
15483;DHT22;7843;50.330;7.312;2023-07-29T09:09:29;18.40;99.90
15483;DHT22;7843;50.330;7.312;2023-07-29T09:11:56;18.40;99.90
15483;DHT22;7843;50.330;7.312;2023-07-29T09:14:23;18.50;99.90
15483;DHT22;7843;50.330;7.312;2023-07-29T09:16:50;18.60;99.90
15483;DHT22;7843;50.330;7.312;2023-07-29T09:19:17;18.70;99.90
15483;DHT22;7843;50.330;7.312;2023-07-29T09:21:46;18.80;99.90
15483;DHT22;7843;50.330;7.312;2023-07-29T09:24:16;18.90;99.90
15483;DHT22;7843;50.330;7.312;2023-07-29T09:26:49;19.10;99.90
15483;DHT22;7843;50.330;7.312;2023-07-29T09:29:16;19.20;99.90
15483;DHT22;7843;50.330;7.312;2023-07-29T09:31:47;19.30;99.90
15483;DHT22;7843;50.330;7.312;2023-07-29T09:34:15;19.40;99.90
15483;DHT22;7843;50.330;7.312;2023-07-29T09:36:42;19.40;99.90
15483;DHT22;7843;50.330;7.312;2023-07-29T09:39:12;19.50;99.90
15483;DHT22;7843;50.330;7.312;2023-07-29T09:41:39;19.50;99.90
15483;DHT22;7843;50.330;7.312;2023-07-29T09:44:07;19.50;99.90
15483;DHT22;7843;50.330;7.312;2023-07-29T09:46:36;19.40;99.90
15483;DHT22;7843;50.330;7.312;2023-07-29T09:49:04;19.50;99.90
15483;DHT22;7843;50.330;7.312;2023-07-29T09:51:32;19.40;99.90
15483;DHT22;7843;50.330;7.312;2023-07-29T09:54:03;19.50;99.90
15483;DHT22;7843;50.330;7.312;2023-07-29T09:56:30;19.60;99.90
15483;DHT22;7843;50.330;7.312;2023-07-29T09:58:57;19.70;99.90
15483;DHT22;7843;50.330;7.312;2023-07-29T10:01:24;19.80;99.90
15483;DHT22;7843;50.330;7.312;2023-07-29T10:03:51;19.80;99.90
15483;DHT22;7843;50.330;7.312;2023-07-29T10:06:19;20.00;99.90
15483;DHT22;7843;50.330;7.312;2023-07-29T10:08:47;20.00;99.90
15483;DHT22;7843;50.330;7.312;2023-07-29T10:11:15;20.10;99.90
15483;DHT22;7843;50.330;7.312;2023-07-29T10:13:43;20.30;99.90
15483;DHT22;7843;50.330;7.312;2023-07-29T10:16:13;20.40;99.90
15483;DHT22;7843;50.330;7.312;2023-07-29T10:18:41;20.40;99.90
15483;DHT22;7843;50.330;7.312;2023-07-29T10:21:11;20.50;99.90
15483;DHT22;7843;50.330;7.312;2023-07-29T10:23:42;20.70;99.90
15483;DHT22;7843;50.330;7.312;2023-07-29T10:26:10;21.10;99.90
15483;DHT22;7843;50.330;7.312;2023-07-29T10:28:40;21.30;99.90
15483;DHT22;7843;50.330;7.312;2023-07-29T10:31:08;21.40;99.90
15483;DHT22;7843;50.330;7.312;2023-07-29T10:33:36;21.80;98.30
15483;DHT22;7843;50.330;7.312;2023-07-29T10:36:04;21.90;99.90
15483;DHT22;7843;50.330;7.312;2023-07-29T10:38:31;22.00;98.60
15483;DHT22;7843;50.330;7.312;2023-07-29T10:40:59;22.20;96.00
15483;DHT22;7843;50.330;7.312;2023-07-29T10:43:35;22.50;97.30
15483;DHT22;7843;50.330;7.312;2023-07-29T10:46:35;22.40;96.80
15483;DHT22;7843;50.330;7.312;2023-07-29T10:49:02;22.20;97.40
15483;DHT22;7843;50.330;7.312;2023-07-29T10:51:36;22.10;98.00
15483;DHT22;7843;50.330;7.312;2023-07-29T10:56:33;21.60;99.90
15483;DHT22;7843;50.330;7.312;2023-07-29T11:01:51;21.70;99.90
15483;DHT22;7843;50.330;7.312;2023-07-29T11:12:43;23.00;98.40
15483;DHT22;7843;50.330;7.312;2023-07-29T11:15:20;23.10;98.20
15483;DHT22;7843;50.330;7.312;2023-07-29T11:20:25;23.50;97.70
15483;DHT22;7843;50.330;7.312;2023-07-29T11:23:00;23.70;91.80
15483;DHT22;7843;50.330;7.312;2023-07-29T11:25:29;23.70;91.50
15483;DHT22;7843;50.330;7.312;2023-07-29T11:27:58;23.70;90.90
15483;DHT22;7843;50.330;7.312;2023-07-29T11:30:25;24.00;92.10
15483;DHT22;7843;50.330;7.312;2023-07-29T11:32:57;24.20;91.20
15483;DHT22;7843;50.330;7.312;2023-07-29T11:35:26;24.40;86.80
15483;DHT22;7843;50.330;7.312;2023-07-29T11:37:54;24.50;91.70
15483;DHT22;7843;50.330;7.312;2023-07-29T11:40:23;24.60;87.30
15483;DHT22;7843;50.330;7.312;2023-07-29T11:42:51;24.60;90.90
15483;DHT22;7843;50.330;7.312;2023-07-29T11:45:19;24.40;86.70
15483;DHT22;7843;50.330;7.312;2023-07-29T11:47:46;24.10;87.70
15483;DHT22;7843;50.330;7.312;2023-07-29T11:50:14;24.00;90.10
15483;DHT22;7843;50.330;7.312;2023-07-29T11:52:46;24.30;86.10
15483;DHT22;7843;50.330;7.312;2023-07-29T11:55:14;24.40;90.60
15483;DHT22;7843;50.330;7.312;2023-07-29T11:57:42;24.20;90.70
15483;DHT22;7843;50.330;7.312;2023-07-29T12:00:10;24.00;94.20
15483;DHT22;7843;50.330;7.312;2023-07-29T12:02:40;23.70;88.70
15483;DHT22;7843;50.330;7.312;2023-07-29T12:05:09;23.60;88.00
15483;DHT22;7843;50.330;7.312;2023-07-29T12:07:38;23.70;93.40
15483;DHT22;7843;50.330;7.312;2023-07-29T12:10:06;24.10;92.80
15483;DHT22;7843;50.330;7.312;2023-07-29T12:12:33;24.30;95.60
15483;DHT22;7843;50.330;7.312;2023-07-29T12:14:59;24.20;95.20
15483;DHT22;7843;50.330;7.312;2023-07-29T12:17:27;24.20;90.90
15483;DHT22;7843;50.330;7.312;2023-07-29T12:19:55;24.90;94.60
15483;DHT22;7843;50.330;7.312;2023-07-29T12:22:21;25.50;89.50
15483;DHT22;7843;50.330;7.312;2023-07-29T12:24:51;26.00;86.90
15483;DHT22;7843;50.330;7.312;2023-07-29T12:27:21;26.40;88.30
15483;DHT22;7843;50.330;7.312;2023-07-29T12:29:52;26.50;88.90
15483;DHT22;7843;50.330;7.312;2023-07-29T12:32:19;26.60;88.50
15483;DHT22;7843;50.330;7.312;2023-07-29T12:34:46;26.80;83.40
15483;DHT22;7843;50.330;7.312;2023-07-29T12:37:13;27.00;88.90
15483;DHT22;7843;50.330;7.312;2023-07-29T12:39:40;27.20;81.00
15483;DHT22;7843;50.330;7.312;2023-07-29T12:42:10;27.20;82.20
15483;DHT22;7843;50.330;7.312;2023-07-29T12:44:38;27.60;81.40
15483;DHT22;7843;50.330;7.312;2023-07-29T12:47:05;28.10;77.90
15483;DHT22;7843;50.330;7.312;2023-07-29T12:49:33;28.20;84.80
15483;DHT22;7843;50.330;7.312;2023-07-29T12:52:00;28.10;83.80
15483;DHT22;7843;50.330;7.312;2023-07-29T12:54:27;27.70;82.30
15483;DHT22;7843;50.330;7.312;2023-07-29T12:56:54;27.40;82.70
15483;DHT22;7843;50.330;7.312;2023-07-29T12:59:23;27.60;79.20
15483;DHT22;7843;50.330;7.312;2023-07-29T13:01:50;27.40;81.80
15483;DHT22;7843;50.330;7.312;2023-07-29T13:04:16;27.00;79.30
15483;DHT22;7843;50.330;7.312;2023-07-29T13:06:43;26.20;85.40
15483;DHT22;7843;50.330;7.312;2023-07-29T13:09:10;25.70;87.40
15483;DHT22;7843;50.330;7.312;2023-07-29T13:11:37;25.20;85.90
15483;DHT22;7843;50.330;7.312;2023-07-29T13:14:05;25.00;85.80
15483;DHT22;7843;50.330;7.312;2023-07-29T13:16:34;24.60;85.90
15483;DHT22;7843;50.330;7.312;2023-07-29T13:19:01;24.30;87.60
15483;DHT22;7843;50.330;7.312;2023-07-29T13:21:28;24.20;91.40
15483;DHT22;7843;50.330;7.312;2023-07-29T13:23:56;24.20;91.30
15483;DHT22;7843;50.330;7.312;2023-07-29T13:26:23;24.50;89.90
15483;DHT22;7843;50.330;7.312;2023-07-29T13:28:50;25.00;90.10
15483;DHT22;7843;50.330;7.312;2023-07-29T13:31:17;25.10;87.80
15483;DHT22;7843;50.330;7.312;2023-07-29T13:33:43;24.80;90.70
15483;DHT22;7843;50.330;7.312;2023-07-29T13:36:11;24.50;90.20
15483;DHT22;7843;50.330;7.312;2023-07-29T13:38:41;24.20;90.70
15483;DHT22;7843;50.330;7.312;2023-07-29T13:41:08;24.00;90.70
15483;DHT22;7843;50.330;7.312;2023-07-29T13:43:37;23.80;90.80
15483;DHT22;7843;50.330;7.312;2023-07-29T13:46:06;23.80;90.50
15483;DHT22;7843;50.330;7.312;2023-07-29T13:48:33;23.70;90.90
15483;DHT22;7843;50.330;7.312;2023-07-29T13:51:02;23.50;92.20
15483;DHT22;7843;50.330;7.312;2023-07-29T13:53:29;23.50;92.20
15483;DHT22;7843;50.330;7.312;2023-07-29T13:55:57;23.70;91.70
15483;DHT22;7843;50.330;7.312;2023-07-29T13:58:24;23.70;93.30
15483;DHT22;7843;50.330;7.312;2023-07-29T14:00:52;23.70;93.00
15483;DHT22;7843;50.330;7.312;2023-07-29T14:03:19;23.80;91.10
15483;DHT22;7843;50.330;7.312;2023-07-29T14:05:45;24.00;91.00
15483;DHT22;7843;50.330;7.312;2023-07-29T14:08:12;24.90;90.80
15483;DHT22;7843;50.330;7.312;2023-07-29T14:10:39;25.80;88.10
15483;DHT22;7843;50.330;7.312;2023-07-29T14:13:06;25.90;84.00
15483;DHT22;7843;50.330;7.312;2023-07-29T14:15:32;26.20;85.90
15483;DHT22;7843;50.330;7.312;2023-07-29T14:17:59;26.90;84.10
15483;DHT22;7843;50.330;7.312;2023-07-29T14:20:26;27.40;78.30
15483;DHT22;7843;50.330;7.312;2023-07-29T14:22:52;27.80;71.90
15483;DHT22;7843;50.330;7.312;2023-07-29T14:25:19;27.90;74.70
15483;DHT22;7843;50.330;7.312;2023-07-29T14:27:46;28.20;73.80
15483;DHT22;7843;50.330;7.312;2023-07-29T14:30:13;28.50;72.80
15483;DHT22;7843;50.330;7.312;2023-07-29T14:32:39;28.60;68.80
15483;DHT22;7843;50.330;7.312;2023-07-29T14:35:06;28.80;68.60
15483;DHT22;7843;50.330;7.312;2023-07-29T14:37:35;29.10;70.20
15483;DHT22;7843;50.330;7.312;2023-07-29T14:40:08;29.30;69.30
15483;DHT22;7843;50.330;7.312;2023-07-29T14:42:37;29.40;70.00
15483;DHT22;7843;50.330;7.312;2023-07-29T14:45:04;29.60;66.90
15483;DHT22;7843;50.330;7.312;2023-07-29T14:47:31;29.40;68.70
15483;DHT22;7843;50.330;7.312;2023-07-29T14:50:01;29.00;68.30
15483;DHT22;7843;50.330;7.312;2023-07-29T14:52:28;29.30;67.50
15483;DHT22;7843;50.330;7.312;2023-07-29T14:54:55;29.40;67.80
15483;DHT22;7843;50.330;7.312;2023-07-29T14:57:21;28.70;70.90
15483;DHT22;7843;50.330;7.312;2023-07-29T14:59:48;28.00;68.20
15483;DHT22;7843;50.330;7.312;2023-07-29T15:02:15;27.90;70.70
15483;DHT22;7843;50.330;7.312;2023-07-29T15:04:41;28.20;72.20
15483;DHT22;7843;50.330;7.312;2023-07-29T15:07:08;28.30;72.70
15483;DHT22;7843;50.330;7.312;2023-07-29T15:09:35;28.50;70.60
15483;DHT22;7843;50.330;7.312;2023-07-29T15:12:03;28.60;68.50
15483;DHT22;7843;50.330;7.312;2023-07-29T15:14:30;28.70;71.00
15483;DHT22;7843;50.330;7.312;2023-07-29T15:16:56;29.00;67.80
15483;DHT22;7843;50.330;7.312;2023-07-29T15:19:26;29.30;70.70
15483;DHT22;7843;50.330;7.312;2023-07-29T15:21:52;29.40;69.50
15483;DHT22;7843;50.330;7.312;2023-07-29T15:24:19;29.60;68.70
15483;DHT22;7843;50.330;7.312;2023-07-29T15:26:46;29.50;68.80
15483;DHT22;7843;50.330;7.312;2023-07-29T15:29:14;29.00;64.70
15483;DHT22;7843;50.330;7.312;2023-07-29T15:31:40;28.20;68.20
15483;DHT22;7843;50.330;7.312;2023-07-29T15:34:08;27.80;71.60
15483;DHT22;7843;50.330;7.312;2023-07-29T15:36:40;27.80;72.50
15483;DHT22;7843;50.330;7.312;2023-07-29T15:39:08;28.20;74.30
15483;DHT22;7843;50.330;7.312;2023-07-29T15:41:35;28.40;68.00
15483;DHT22;7843;50.330;7.312;2023-07-29T15:44:01;28.60;68.80
15483;DHT22;7843;50.330;7.312;2023-07-29T15:46:28;28.60;70.20
15483;DHT22;7843;50.330;7.312;2023-07-29T15:48:55;28.60;68.40
15483;DHT22;7843;50.330;7.312;2023-07-29T15:51:26;28.60;67.00
15483;DHT22;7843;50.330;7.312;2023-07-29T15:53:53;28.50;67.10
15483;DHT22;7843;50.330;7.312;2023-07-29T15:56:20;28.20;71.90
15483;DHT22;7843;50.330;7.312;2023-07-29T15:58:47;27.90;75.30
15483;DHT22;7843;50.330;7.312;2023-07-29T16:01:14;28.00;70.20
15483;DHT22;7843;50.330;7.312;2023-07-29T16:03:41;28.10;69.00
15483;DHT22;7843;50.330;7.312;2023-07-29T16:06:07;28.10;73.40